createdAt,value
2017-12-16T07:32:39.883Z,63.45
2017-12-16T07:35:21.553Z,64.82
2017-12-16T07:38:05.313Z,66.62
2017-12-16T07:40:49.817Z,52.22
2017-12-16T07:43:35.543Z,62.05
2017-12-16T07:46:13.277Z,56.90
2017-12-16T07:48:53.565Z,58.17
2017-12-16T07:51:34.319Z,53.65
2017-12-16T07:54:08.946Z,47.08
2017-12-16T07:56:47.606Z,52.80
2017-12-16T07:59:27.442Z,57.15
2017-12-16T08:02:09.167Z,51.88
2017-12-16T08:04:50.928Z,49.90
2017-12-16T08:07:24.278Z,43.45
2017-12-16T08:10:10.815Z,54.45
2017-12-16T08:12:53.782Z,49.60
2017-12-16T08:15:39.886Z,54.38
2017-12-16T08:18:26.776Z,53.15
2017-12-16T08:21:08.659Z,38.47
2017-12-16T08:23:53.118Z,42.90
2017-12-16T08:26:31.473Z,52.20
2017-12-16T08:29:16.600Z,43.03
2017-12-16T08:31:51.168Z,49.47
2017-12-16T08:34:27.394Z,46.20
2017-12-16T08:37:13.730Z,37.13
2017-12-16T08:39:54.822Z,60.35
2017-12-16T08:42:38.967Z,48.45
2017-12-16T08:45:17.632Z,54.90
2017-12-16T08:48:02.616Z,46.30
2017-12-16T08:50:48.291Z,38.88
2017-12-16T08:53:28.061Z,42.03
2017-12-16T08:56:06.568Z,42.37
2017-12-16T08:58:45.991Z,35.17
2017-12-16T09:01:29.205Z,29.65
2017-12-16T09:04:10.341Z,29.87
2017-12-16T09:06:45.236Z,33.60
2017-12-16T09:09:29.921Z,31.25
2017-12-16T09:12:08.402Z,32.30
2017-12-16T09:14:50.958Z,32.65
2017-12-16T09:17:32.599Z,34.25
2017-12-16T09:20:15.455Z,26.20
2017-12-16T09:23:01.129Z,29.02
2017-12-16T09:25:42.032Z,20.33
2017-12-16T09:28:26.776Z,30.62
2017-12-16T09:31:01.052Z,20.48
2017-12-16T09:33:40.158Z,23.55
2017-12-16T09:36:18.934Z,27.52
2017-12-16T09:39:00.313Z,18.33
2017-12-16T09:41:44.335Z,21.52
2017-12-16T09:44:25.741Z,24.92
2017-12-16T09:47:05.117Z,19.02
2017-12-16T09:49:47.525Z,17.85
2017-12-16T09:52:27.501Z,20.62
2017-12-16T09:55:11.361Z,31.05
2017-12-16T09:57:49.851Z,25.65
2017-12-16T10:00:28.132Z,21.25
2017-12-16T10:03:11.792Z,21.02
2017-12-16T10:05:56.354Z,19.58
2017-12-16T10:08:31.338Z,20.10
2017-12-16T10:11:12.333Z,27.52
2017-12-16T10:13:55.635Z,18.92
2017-12-16T10:16:40.216Z,23.65
2017-12-16T10:19:18.555Z,22.08
2017-12-16T10:22:01.742Z,20.35
2017-12-16T10:24:45.436Z,20.88
2017-12-16T10:27:22.399Z,18.60
2017-12-16T10:30:06.767Z,20.92
2017-12-16T10:32:49.988Z,14.82
2017-12-16T10:35:28.931Z,23.40
2017-12-16T10:38:08.599Z,26.75
2017-12-16T10:40:46.017Z,26.02
2017-12-16T10:43:29.502Z,16.45
2017-12-16T10:46:12.068Z,17.95
2017-12-16T10:48:49.198Z,16.52
2017-12-16T10:51:29.599Z,19.92
2017-12-16T10:54:09.792Z,13.57
2017-12-16T10:56:49.744Z,15.63
2017-12-16T10:59:30.972Z,20.17
2017-12-16T11:02:17.116Z,15.63
2017-12-16T11:05:02.837Z,12.25
2017-12-16T11:07:48.487Z,10.75
2017-12-16T11:10:31.394Z,9.93
2017-12-16T11:13:05.103Z,18.15
2017-12-16T11:15:49.658Z,15.45
2017-12-16T11:18:24.805Z,15.52
2017-12-16T11:21:01.506Z,16.75
2017-12-16T11:23:45.419Z,12.15
2017-12-16T11:26:29.367Z,14.00
2017-12-16T11:29:13.182Z,10.07
2017-12-16T11:31:54.861Z,20.02
2017-12-16T11:34:33.714Z,8.43
2017-12-16T11:37:13.396Z,23.80
2017-12-16T11:39:56.078Z,18.23
2017-12-16T11:42:41.561Z,11.50
2017-12-16T11:45:15.460Z,12.30
2017-12-16T11:47:54.657Z,16.27
2017-12-16T11:50:32.672Z,11.85
2017-12-16T11:53:19.319Z,11.80
2017-12-16T11:56:01.200Z,9.15
2017-12-16T11:58:37.202Z,10.15
2017-12-16T12:01:19.703Z,11.07
2017-12-16T12:04:09.062Z,11.55
2017-12-16T12:06:57.965Z,9.70
2017-12-16T12:09:27.540Z,14.05
2017-12-16T12:12:15.349Z,17.52
2017-12-16T12:15:00.928Z,5.90
2017-12-16T12:17:47.611Z,12.85
2017-12-16T12:20:30.224Z,6.37
2017-12-16T12:23:17.240Z,9.82
2017-12-16T12:26:01.131Z,9.30
2017-12-16T12:28:43.759Z,6.90
2017-12-16T12:31:28.184Z,10.43
2017-12-16T12:34:11.789Z,6.35
2017-12-16T12:36:48.906Z,8.00
2017-12-16T12:39:29.917Z,5.90
2017-12-16T12:42:09.577Z,17.12
2017-12-16T12:44:47.026Z,8.55
2017-12-16T12:47:27.459Z,10.48
2017-12-16T12:50:10.073Z,10.10
2017-12-16T12:52:51.180Z,16.05
2017-12-16T12:55:35.288Z,11.43
2017-12-16T12:58:19.097Z,13.85
2017-12-16T13:00:53.284Z,9.90
2017-12-16T13:03:38.595Z,8.38
2017-12-16T13:06:20.359Z,6.07
2017-12-16T13:09:01.917Z,9.30
2017-12-16T13:11:40.046Z,11.07
2017-12-16T13:14:24.765Z,9.73
2017-12-16T13:17:10.777Z,14.13
2017-12-16T13:19:50.904Z,6.72
2017-12-16T13:22:26.180Z,13.95
2017-12-16T13:25:12.338Z,12.40
2017-12-16T13:27:50.543Z,11.88
2017-12-16T13:30:34.394Z,7.12
2017-12-16T13:33:23.675Z,6.25
2017-12-16T13:36:04.819Z,18.65
2017-12-16T13:38:39.463Z,9.18
2017-12-16T13:41:16.892Z,10.48
2017-12-16T13:44:02.321Z,7.28
2017-12-16T13:46:47.503Z,15.40
2017-12-16T13:49:26.601Z,11.07
2017-12-16T13:52:04.443Z,7.25
2017-12-16T13:54:48.955Z,5.55
2017-12-16T13:57:30.322Z,13.62
2017-12-16T14:00:15.278Z,11.95
2017-12-16T14:02:57.490Z,10.38
2017-12-16T14:05:39.901Z,12.20
2017-12-16T14:08:17.241Z,10.15
2017-12-16T14:10:57.492Z,9.50
2017-12-16T14:13:35.041Z,12.77
2017-12-16T14:16:20.834Z,14.00
2017-12-16T14:19:01.806Z,10.30
2017-12-16T14:21:43.849Z,9.20
2017-12-16T14:24:28.272Z,11.02
2017-12-16T14:27:02.375Z,10.35
2017-12-16T14:29:46.724Z,8.57
2017-12-16T14:32:30.274Z,11.38
2017-12-16T14:35:14.799Z,9.80
2017-12-16T14:37:49.444Z,11.65
2017-12-16T14:40:26.802Z,7.43
2017-12-16T14:43:15.300Z,9.50
2017-12-16T14:45:53.559Z,76.55
2017-12-16T14:48:37.378Z,19.05
2017-12-16T14:51:22.341Z,9.32
2017-12-16T14:53:57.627Z,12.68
2017-12-16T14:56:38.464Z,11.40
2017-12-16T14:59:17.154Z,14.32
2017-12-16T15:01:55.659Z,11.50
2017-12-16T15:04:29.761Z,13.80
2017-12-16T15:07:11.864Z,13.52
2017-12-16T15:09:56.944Z,11.43
2017-12-16T15:12:31.812Z,9.52
2017-12-16T15:15:16.418Z,8.80
2017-12-16T15:17:59.152Z,11.25
2017-12-16T15:20:38.317Z,11.82
2017-12-16T15:23:20.192Z,12.60
2017-12-16T15:26:03.953Z,8.77
2017-12-16T15:28:44.673Z,10.70
2017-12-16T15:31:26.393Z,6.87
2017-12-16T15:34:03.537Z,10.27
2017-12-16T15:36:50.856Z,8.25
2017-12-16T15:39:31.031Z,10.75
2017-12-16T15:42:11.664Z,9.52
2017-12-16T15:44:44.181Z,11.23
2017-12-16T15:47:22.365Z,9.52
2017-12-16T15:50:02.372Z,7.32
2017-12-16T15:52:35.306Z,9.88
2017-12-16T15:55:14.444Z,11.70
2017-12-16T15:57:56.721Z,9.85
2017-12-16T16:00:38.871Z,6.78
2017-12-16T16:03:15.862Z,10.23
2017-12-16T16:05:56.188Z,13.38
2017-12-16T16:08:30.479Z,9.52
2017-12-16T16:11:08.100Z,8.95
2017-12-16T16:13:41.996Z,10.82
2017-12-16T16:16:24.786Z,7.78
2017-12-16T16:19:03.463Z,11.52
2017-12-16T16:21:36.580Z,7.65
2017-12-16T16:24:20.052Z,8.98
2017-12-16T16:27:03.285Z,8.38
2017-12-16T16:29:32.935Z,11.85
2017-12-16T16:32:10.016Z,15.55
2017-12-16T16:34:48.882Z,20.90
2017-12-16T16:37:32.496Z,16.58
2017-12-16T16:40:18.320Z,21.67
2017-12-16T16:42:56.420Z,11.05
2017-12-16T16:45:36.715Z,13.65
2017-12-16T16:48:17.485Z,11.55
2017-12-16T16:50:56.525Z,10.02
2017-12-16T16:53:36.262Z,18.08
2017-12-16T16:56:11.227Z,12.77
2017-12-16T16:58:48.254Z,14.60
2017-12-16T17:01:32.374Z,11.65
2017-12-16T17:04:14.804Z,28.00
2017-12-16T17:06:54.985Z,14.07
2017-12-16T17:09:34.858Z,9.35
2017-12-16T17:12:17.169Z,10.50
2017-12-16T17:14:59.350Z,15.13
2017-12-16T17:17:40.095Z,14.87
2017-12-16T17:20:24.663Z,20.05
2017-12-16T17:23:09.556Z,16.77
2017-12-16T17:25:45.957Z,19.98
2017-12-16T17:28:27.068Z,14.55
2017-12-16T17:31:04.876Z,12.07
2017-12-16T17:33:41.659Z,19.40
2017-12-16T17:36:14.896Z,16.52
2017-12-16T17:38:55.605Z,15.68
2017-12-16T17:41:36.785Z,16.98
2017-12-16T17:44:17.265Z,18.62
2017-12-16T17:46:58.850Z,16.80
2017-12-16T17:49:31.935Z,14.70
2017-12-16T17:52:12.808Z,15.30
2017-12-16T17:54:54.538Z,15.80
2017-12-16T17:57:35.182Z,14.48
2017-12-16T18:00:17.876Z,17.60
2017-12-16T18:02:58.395Z,18.08
2017-12-16T18:05:36.762Z,23.60
2017-12-16T18:08:14.058Z,19.42
2017-12-16T18:10:53.123Z,24.75
2017-12-16T18:13:27.947Z,18.73
2017-12-16T18:16:10.581Z,17.35
2017-12-16T18:18:51.015Z,12.65
2017-12-16T18:21:34.970Z,14.55
2017-12-16T18:24:09.593Z,18.42
2017-12-16T18:26:46.828Z,23.80
2017-12-16T18:29:27.925Z,14.00
2017-12-16T18:32:15.122Z,15.90
2017-12-16T18:34:53.177Z,20.88
2017-12-16T18:37:34.508Z,16.42
2017-12-16T18:40:18.154Z,14.18
2017-12-16T18:42:56.671Z,15.98
2017-12-16T18:45:30.416Z,20.58
2017-12-16T18:48:14.038Z,24.77
2017-12-16T18:50:52.530Z,15.63
2017-12-16T18:53:32.469Z,10.75
2017-12-16T18:56:09.867Z,13.30
2017-12-16T18:58:51.466Z,13.98
2017-12-16T19:01:31.751Z,8.95
2017-12-16T19:04:11.691Z,8.50
2017-12-16T19:06:54.129Z,7.07
2017-12-16T19:09:37.510Z,7.10
2017-12-16T19:12:16.203Z,8.27
2017-12-16T19:14:51.332Z,15.27
2017-12-16T19:17:35.818Z,14.25
2017-12-16T19:20:15.485Z,12.93
2017-12-16T19:23:00.753Z,16.00
2017-12-16T19:25:44.666Z,11.07
2017-12-16T19:28:18.929Z,19.02
2017-12-16T19:30:59.839Z,11.73
2017-12-16T19:33:41.869Z,18.92
2017-12-16T19:36:23.802Z,28.87
2017-12-16T19:39:03.885Z,23.17
2017-12-16T19:41:42.176Z,25.17
2017-12-16T19:44:26.226Z,28.35
2017-12-16T19:46:59.672Z,23.87
2017-12-16T19:49:41.338Z,23.95
2017-12-16T19:52:26.316Z,21.70
2017-12-16T19:55:12.062Z,22.50
2017-12-16T19:57:54.040Z,27.48
2017-12-16T20:00:38.754Z,15.13
2017-12-16T20:03:17.940Z,15.55
2017-12-16T20:06:03.882Z,17.12
2017-12-16T20:08:47.132Z,16.67
2017-12-16T20:11:26.243Z,15.82
2017-12-16T20:14:10.257Z,22.40
2017-12-16T20:16:53.814Z,20.60
2017-12-16T20:19:33.830Z,18.20
2017-12-16T20:22:19.564Z,17.58
2017-12-16T20:25:03.630Z,15.50
2017-12-16T20:27:41.510Z,22.60
2017-12-16T20:30:27.294Z,18.40
2017-12-16T20:33:05.015Z,18.27
2017-12-16T20:35:44.351Z,14.87
2017-12-16T20:38:22.666Z,21.70
2017-12-16T20:41:01.731Z,21.67
2017-12-16T20:43:46.367Z,14.70
2017-12-16T20:46:20.344Z,19.98
2017-12-16T20:49:02.339Z,18.08
2017-12-16T20:51:48.923Z,22.55
2017-12-16T20:54:22.629Z,17.90
2017-12-16T20:56:55.913Z,26.15
2017-12-16T20:59:34.907Z,20.42
2017-12-16T21:05:02.290Z,19.10
2017-12-16T21:07:46.064Z,20.90
2017-12-16T21:10:23.302Z,28.02
2017-12-16T21:13:07.029Z,21.20
2017-12-16T21:15:51.017Z,20.20
2017-12-16T21:18:35.277Z,22.30
2017-12-16T21:21:17.811Z,21.92
2017-12-16T21:23:58.518Z,22.95
2017-12-16T21:26:44.556Z,22.85
2017-12-16T21:29:29.380Z,17.80
2017-12-16T21:32:13.807Z,25.45
2017-12-16T21:34:55.938Z,17.17
2017-12-16T21:37:34.081Z,29.08
2017-12-16T21:40:13.050Z,21.40
2017-12-16T21:42:55.060Z,23.83
2017-12-16T21:45:36.534Z,25.70
2017-12-16T21:48:10.793Z,26.42
2017-12-16T21:50:51.970Z,26.65
2017-12-16T21:53:33.095Z,36.78
2017-12-16T21:56:17.328Z,36.83
2017-12-16T21:59:02.220Z,35.53
2017-12-16T22:01:41.369Z,28.45
2017-12-16T22:04:20.419Z,35.40
2017-12-16T22:06:56.310Z,30.58
2017-12-16T22:09:40.415Z,29.60
2017-12-16T22:12:19.667Z,31.23
2017-12-16T22:15:02.983Z,33.13
2017-12-16T22:17:41.336Z,34.10
2017-12-16T22:20:25.639Z,32.45
2017-12-16T22:23:04.092Z,30.77
2017-12-16T22:25:48.227Z,29.23
2017-12-16T22:28:30.143Z,38.67
2017-12-16T22:31:09.882Z,38.30
2017-12-16T22:33:47.241Z,30.62
2017-12-16T22:36:27.763Z,39.65
2017-12-16T22:39:10.889Z,28.67
2017-12-16T22:41:49.238Z,37.25
2017-12-16T22:44:25.149Z,29.40
2017-12-16T22:47:08.906Z,24.40
2017-12-16T22:49:51.928Z,27.55
2017-12-16T22:52:39.167Z,24.42
2017-12-16T22:55:15.426Z,26.23
2017-12-16T22:58:03.760Z,24.63
2017-12-16T23:00:48.453Z,27.40
2017-12-16T23:03:28.100Z,25.52
2017-12-16T23:06:12.397Z,30.30
2017-12-16T23:08:53.893Z,24.00
2017-12-16T23:11:35.714Z,21.12
2017-12-16T23:14:19.356Z,21.17
2017-12-16T23:17:03.156Z,27.75
2017-12-16T23:19:46.122Z,21.73
2017-12-16T23:22:30.523Z,22.85
2017-12-16T23:25:12.452Z,20.05
2017-12-16T23:27:54.371Z,19.92
2017-12-16T23:30:37.081Z,23.33
2017-12-16T23:33:11.927Z,21.55
2017-12-16T23:35:57.570Z,17.27
2017-12-16T23:38:41.646Z,18.27
2017-12-16T23:41:25.169Z,19.45
2017-12-16T23:44:07.210Z,20.90
2017-12-16T23:46:52.524Z,19.00
2017-12-16T23:49:34.916Z,20.40
2017-12-16T23:52:17.601Z,19.42
2017-12-16T23:55:00.960Z,19.87
2017-12-16T23:57:43.221Z,22.00
